Time;durP1;ratioP1;P1;durP2;ratioP2;P2;SDS_P1;SDS_P2;PMS_P1;PMS_P2;Temp;Humidity;BMP_temperature;BMP_pressure;BME280_temperature;BME280_humidity;BME280_pressure;Samples;Min_cycle;Max_cycle;Signal;HPM_P1;HPM_P2
2023/04/11 00:01:54;;;;;;;170.27;114.13;;;7.80;99.90;;;;;;4896858;29;20049;-76
2023/04/11 00:04:24;;;;;;;172.50;115.30;;;7.80;99.90;;;;;;4899787;29;20044;-74
2023/04/11 00:06:51;;;;;;;165.30;111.43;;;7.80;99.90;;;;;;4900813;29;20048;-77
2023/04/11 00:09:19;;;;;;;151.82;105.82;;;7.80;99.90;;;;;;4900075;29;20127;-75
2023/04/11 00:11:48;;;;;;;158.95;105.05;;;7.80;99.90;;;;;;4910498;29;20065;-73
2023/04/11 00:14:16;;;;;;;171.13;111.72;;;7.80;99.90;;;;;;4905953;29;20520;-72
2023/04/11 00:16:43;;;;;;;154.55;105.72;;;7.80;99.90;;;;;;4905902;29;20041;-74
2023/04/11 00:19:11;;;;;;;162.43;109.47;;;7.80;99.90;;;;;;4913713;29;20080;-75
2023/04/11 00:21:39;;;;;;;169.23;114.78;;;7.80;99.90;;;;;;4913409;29;20111;-75
2023/04/11 00:24:07;;;;;;;189.75;127.07;;;7.80;99.90;;;;;;4917135;29;20052;-74
2023/04/11 00:26:35;;;;;;;183.07;124.25;;;7.80;99.90;;;;;;4898964;29;20040;-75
2023/04/11 00:29:04;;;;;;;166.88;115.47;;;7.70;99.90;;;;;;4907022;29;20052;-75
2023/04/11 00:31:32;;;;;;;166.30;108.97;;;7.70;99.90;;;;;;4905235;29;20045;-75
2023/04/11 00:33:59;;;;;;;162.77;108.45;;;7.60;99.90;;;;;;4902926;29;20044;-73
2023/04/11 00:36:27;;;;;;;145.10;98.55;;;7.60;99.90;;;;;;4921582;29;20045;-74
2023/04/11 00:38:57;;;;;;;140.18;96.90;;;7.60;99.90;;;;;;4917983;29;20045;-78
2023/04/11 00:41:24;;;;;;;125.65;87.05;;;7.60;99.90;;;;;;4919359;29;20057;-74
2023/04/11 00:43:53;;;;;;;124.63;82.57;;;7.60;99.90;;;;;;4915209;29;20049;-73
2023/04/11 00:46:22;;;;;;;118.90;82.97;;;7.70;99.90;;;;;;4907113;29;20052;-75
2023/04/11 00:48:49;;;;;;;114.85;79.63;;;7.70;99.90;;;;;;4901225;29;20136;-76
2023/04/11 00:51:17;;;;;;;122.47;84.47;;;7.70;99.90;;;;;;4904939;29;20087;-76
2023/04/11 00:53:45;;;;;;;122.22;83.95;;;7.70;99.90;;;;;;4902363;29;20450;-74
2023/04/11 00:56:13;;;;;;;125.88;85.93;;;7.70;99.90;;;;;;4881854;29;20132;-74
2023/04/11 00:58:41;;;;;;;127.38;87.78;;;7.70;99.90;;;;;;4900080;29;20055;-76
2023/04/11 01:01:09;;;;;;;119.30;82.80;;;7.70;99.90;;;;;;4904404;29;20040;-75
2023/04/11 01:03:40;;;;;;;113.22;77.30;;;7.70;99.90;;;;;;4884291;29;20053;-77
2023/04/11 01:06:09;;;;;;;117.10;79.30;;;7.70;99.90;;;;;;4891570;29;20053;-73
2023/04/11 01:08:38;;;;;;;113.40;77.82;;;7.70;99.90;;;;;;4886059;29;20044;-75
2023/04/11 01:11:07;;;;;;;110.03;73.45;;;7.70;99.90;;;;;;4901980;29;20041;-75
2023/04/11 01:13:36;;;;;;;104.80;74.30;;;7.70;99.90;;;;;;4898884;29;20044;-74
2023/04/11 01:16:05;;;;;;;110.78;77.72;;;7.70;99.90;;;;;;4890145;29;20041;-75
2023/04/11 01:18:32;;;;;;;108.32;74.43;;;7.70;99.90;;;;;;4891877;29;20055;-75
2023/04/11 01:21:01;;;;;;;109.05;75.57;;;7.70;99.90;;;;;;4905327;29;20560;-77
2023/04/11 01:23:30;;;;;;;141.73;95.35;;;7.70;99.90;;;;;;4900207;29;20044;-76
2023/04/11 01:25:59;;;;;;;129.43;87.38;;;7.70;99.90;;;;;;4884948;29;20064;-74
2023/04/11 01:28:26;;;;;;;128.30;89.07;;;7.70;99.90;;;;;;4888201;29;20497;-74
2023/04/11 01:30:54;;;;;;;123.57;89.35;;;7.70;99.90;;;;;;4907118;29;20045;-73
2023/04/11 01:33:22;;;;;;;129.18;84.72;;;7.70;99.90;;;;;;4899432;29;20140;-74
2023/04/11 01:35:50;;;;;;;131.07;93.45;;;7.70;99.90;;;;;;4881054;29;20157;-76
2023/04/11 01:38:18;;;;;;;132.30;90.43;;;7.60;99.90;;;;;;4882135;29;20135;-77
2023/04/11 01:40:47;;;;;;;132.82;90.85;;;7.60;99.90;;;;;;4883146;29;20049;-75
2023/04/11 01:43:15;;;;;;;129.75;91.00;;;7.60;99.90;;;;;;4883017;29;20049;-76
2023/04/11 01:45:43;;;;;;;140.90;96.60;;;7.60;99.90;;;;;;4882755;29;20404;-75
2023/04/11 01:48:10;;;;;;;138.93;96.43;;;7.60;99.90;;;;;;4886368;29;20040;-73
2023/04/11 01:50:39;;;;;;;137.00;94.18;;;7.60;99.90;;;;;;4903872;29;20049;-76
2023/04/11 01:53:07;;;;;;;132.20;90.18;;;7.60;99.90;;;;;;4896452;29;20126;-75
2023/04/11 01:55:34;;;;;;;122.07;86.45;;;7.60;99.90;;;;;;4901798;29;20065;-72
2023/04/11 01:58:03;;;;;;;131.32;89.00;;;7.60;99.90;;;;;;4888602;29;20113;-74
2023/04/11 02:00:31;;;;;;;138.25;95.30;;;7.50;99.90;;;;;;4906902;29;20104;-77
2023/04/11 02:02:58;;;;;;;133.52;91.80;;;7.60;99.90;;;;;;4890667;29;20095;-76
2023/04/11 02:05:26;;;;;;;132.00;92.32;;;7.50;99.90;;;;;;4898847;29;20055;-77
2023/04/11 02:07:56;;;;;;;134.50;91.78;;;7.60;99.90;;;;;;4880982;29;20053;-79
2023/04/11 02:10:23;;;;;;;123.13;85.40;;;7.60;99.90;;;;;;4897673;29;20515;-78
2023/04/11 02:12:51;;;;;;;126.43;89.38;;;7.60;99.90;;;;;;4898642;29;20040;-74
2023/04/11 02:15:20;;;;;;;135.00;92.80;;;7.70;99.90;;;;;;4879630;29;20059;-77
2023/04/11 02:17:48;;;;;;;127.45;86.38;;;7.70;99.90;;;;;;4879912;29;20914;-76
2023/04/11 02:20:16;;;;;;;122.53;83.88;;;7.60;99.90;;;;;;4880762;29;20528;-74
2023/04/11 02:22:43;;;;;;;105.43;75.80;;;7.70;99.90;;;;;;4894100;29;20053;-77
2023/04/11 02:25:11;;;;;;;109.57;76.47;;;7.60;99.90;;;;;;4896315;29;20382;-77
2023/04/11 02:27:38;;;;;;;126.13;87.45;;;7.70;99.90;;;;;;4896475;29;20055;-76
2023/04/11 02:30:07;;;;;;;134.18;91.60;;;7.70;99.90;;;;;;4899741;29;20139;-77
2023/04/11 02:32:37;;;;;;;138.45;93.10;;;7.70;99.90;;;;;;4878815;29;20079;-76
2023/04/11 02:35:06;;;;;;;136.43;94.65;;;7.70;99.90;;;;;;4895435;29;20351;-77
2023/04/11 02:37:33;;;;;;;130.43;87.65;;;7.60;99.90;;;;;;4899181;29;20033;-77
2023/04/11 02:40:02;;;;;;;125.05;83.43;;;7.60;99.90;;;;;;4909007;29;20072;-76
2023/04/11 02:42:30;;;;;;;118.72;84.22;;;7.60;99.90;;;;;;4909822;29;20048;-77
2023/04/11 02:44:59;;;;;;;123.15;81.97;;;7.50;99.90;;;;;;4915492;29;20151;-77
2023/04/11 02:47:29;;;;;;;112.38;76.55;;;7.50;99.90;;;;;;4903402;29;20108;-75
2023/04/11 02:50:03;;;;;;;105.28;72.53;;;7.60;99.90;;;;;;4900126;29;20069;-77
2023/04/11 02:52:38;;;;;;;96.20;67.40;;;7.60;99.90;;;;;;4898662;29;20052;-76
2023/04/11 02:55:06;;;;;;;100.82;73.80;;;7.60;99.90;;;;;;4889031;29;20045;-74
2023/04/11 02:57:33;;;;;;;101.13;75.53;;;7.70;99.90;;;;;;4864611;29;20072;-74
2023/04/11 03:00:01;;;;;;;99.07;73.15;;;7.60;99.90;;;;;;4880418;29;20056;-74
2023/04/11 03:02:40;;;;;;;100.00;73.35;;;7.70;99.90;;;;;;4880166;29;20044;-77
2023/04/11 03:05:10;;;;;;;99.03;72.35;;;7.60;99.90;;;;;;4882561;29;20053;-75
2023/04/11 03:07:39;;;;;;;105.30;73.45;;;7.60;99.90;;;;;;4890741;29;20069;-76
2023/04/11 03:10:09;;;;;;;102.60;71.30;;;7.60;99.90;;;;;;4883526;29;20144;-75
2023/04/11 03:12:37;;;;;;;102.07;71.05;;;7.60;99.90;;;;;;4893233;29;20100;-77
2023/04/11 03:15:14;;;;;;;98.65;70.55;;;7.50;99.90;;;;;;4878756;29;20442;-75
2023/04/11 03:17:42;;;;;;;106.03;71.35;;;7.60;99.90;;;;;;4895826;29;20048;-75
2023/04/11 03:20:19;;;;;;;110.72;72.70;;;7.50;99.90;;;;;;4877958;29;20049;-75
2023/04/11 03:22:49;;;;;;;103.90;69.47;;;7.50;99.90;;;;;;4885173;29;20625;-75
2023/04/11 03:25:17;;;;;;;101.38;70.00;;;7.60;99.90;;;;;;4891761;29;20065;-75
2023/04/11 03:27:47;;;;;;;99.53;70.53;;;7.60;99.90;;;;;;4889796;29;20044;-77
2023/04/11 03:30:15;;;;;;;98.68;67.43;;;7.60;99.90;;;;;;4880557;29;20044;-74
2023/04/11 03:32:46;;;;;;;101.53;68.20;;;7.60;99.90;;;;;;4886166;29;20517;-76
2023/04/11 03:35:15;;;;;;;101.78;70.68;;;7.60;99.90;;;;;;4902787;29;20044;-76
2023/04/11 03:37:48;;;;;;;107.75;75.32;;;7.60;99.90;;;;;;4883980;29;20041;-77
2023/04/11 03:40:17;;;;;;;104.18;72.45;;;7.50;99.90;;;;;;4867972;29;20061;-77
2023/04/11 03:42:50;;;;;;;97.38;69.13;;;7.50;99.90;;;;;;4877726;29;20760;-77
2023/04/11 03:45:22;;;;;;;101.18;67.82;;;7.60;99.90;;;;;;4876681;29;20532;-74
2023/04/11 03:47:53;;;;;;;96.18;67.95;;;7.60;99.90;;;;;;4877649;29;20048;-75
2023/04/11 03:50:25;;;;;;;96.75;68.63;;;7.60;99.90;;;;;;4878997;29;20454;-73
2023/04/11 03:52:58;;;;;;;100.82;69.88;;;7.60;99.90;;;;;;4877985;29;20813;-75
2023/04/11 03:55:26;;;;;;;106.35;72.43;;;7.60;99.90;;;;;;4880904;29;20049;-81
2023/04/11 03:57:55;;;;;;;108.25;73.13;;;7.60;99.90;;;;;;4877987;29;20415;-77
2023/04/11 04:00:23;;;;;;;106.47;71.90;;;7.50;99.90;;;;;;4877631;29;20041;-73
2023/04/11 04:03:02;;;;;;;100.03;71.15;;;7.50;99.90;;;;;;4885668;29;20131;-76
2023/04/11 04:05:31;;;;;;;95.38;68.43;;;7.50;99.90;;;;;;4877812;29;20045;-77
2023/04/11 04:08:00;;;;;;;100.55;69.50;;;7.50;99.90;;;;;;4878133;29;20104;-73
2023/04/11 04:10:39;;;;;;;96.75;66.20;;;7.50;99.90;;;;;;4870319;29;20559;-75
2023/04/11 04:13:07;;;;;;;92.38;65.30;;;7.50;99.90;;;;;;4878867;29;20051;-77
2023/04/11 04:15:39;;;;;;;90.28;63.97;;;7.50;99.90;;;;;;4877353;29;20135;-76
2023/04/11 04:18:08;;;;;;;90.25;62.97;;;7.50;99.90;;;;;;4893924;29;20037;-77
2023/04/11 04:20:47;;;;;;;99.82;64.85;;;7.60;99.90;;;;;;4876668;29;20120;-79
2023/04/11 04:23:16;;;;;;;93.90;64.47;;;7.50;99.90;;;;;;4877320;29;20068;-79
2023/04/11 04:26:23;;;;;;;88.60;61.60;;;7.60;99.90;;;;;;4865113;29;20059;-76
2023/04/11 04:29:04;;;;;;;86.70;63.28;;;7.60;99.90;;;;;;4868909;29;20065;-78
2023/04/11 04:31:49;;;;;;;94.40;64.60;;;7.60;99.90;;;;;;4861695;29;20069;-77
2023/04/11 04:34:20;;;;;;;88.53;62.13;;;7.60;99.90;;;;;;4904183;29;20055;-75
2023/04/11 04:36:55;;;;;;;98.70;67.40;;;7.70;99.90;;;;;;4878011;29;20051;-76
2023/04/11 04:39:32;;;;;;;101.80;72.80;;;7.60;99.90;;;;;;4877272;29;20060;-74
2023/04/11 04:42:03;;;;;;;97.85;66.10;;;7.60;99.90;;;;;;4876212;29;20048;-76
2023/04/11 04:44:37;;;;;;;91.97;65.75;;;7.70;99.90;;;;;;4877526;29;20636;-77
2023/04/11 04:47:13;;;;;;;92.28;67.13;;;7.70;99.90;;;;;;4876767;29;20044;-78
2023/04/11 04:49:40;;;;;;;90.07;64.47;;;7.80;99.90;;;;;;4877435;29;20108;-77
2023/04/11 04:52:09;;;;;;;92.25;66.90;;;7.80;99.90;;;;;;4899739;29;20052;-76
2023/04/11 04:54:36;;;;;;;99.30;67.22;;;7.80;99.90;;;;;;4895452;29;20120;-74
2023/04/11 04:57:04;;;;;;;98.68;67.85;;;7.90;99.90;;;;;;4890727;29;20128;-73
2023/04/11 04:59:36;;;;;;;104.35;68.28;;;7.90;99.90;;;;;;4894115;29;20142;-72
2023/04/11 05:02:10;;;;;;;105.40;71.78;;;7.90;99.90;;;;;;4893374;29;20116;-74
2023/04/11 05:04:38;;;;;;;97.22;70.78;;;7.90;99.90;;;;;;4894732;29;20060;-72
2023/04/11 05:07:05;;;;;;;98.88;66.82;;;7.90;99.90;;;;;;4884950;29;20136;-75
2023/04/11 05:09:36;;;;;;;93.38;67.47;;;7.90;99.90;;;;;;4881370;29;20469;-75
2023/04/11 05:12:13;;;;;;;100.90;71.15;;;8.00;99.90;;;;;;4879781;29;20528;-78
2023/04/11 05:14:41;;;;;;;96.97;69.40;;;8.00;99.90;;;;;;4881513;29;20045;-73
2023/04/11 05:17:09;;;;;;;96.88;70.97;;;8.10;99.90;;;;;;4880897;29;20044;-76
2023/04/11 05:19:36;;;;;;;106.55;75.70;;;8.20;99.90;;;;;;4898374;29;20052;-74
2023/04/11 05:22:04;;;;;;;117.32;83.60;;;8.40;99.90;;;;;;4881047;29;20061;-73
2023/04/11 05:24:38;;;;;;;110.13;79.53;;;8.50;99.90;;;;;;4887611;29;20063;-75
2023/04/11 05:27:08;;;;;;;113.10;79.18;;;8.60;99.90;;;;;;4894632;29;20055;-75
2023/04/11 05:29:36;;;;;;;97.35;71.13;;;8.60;99.90;;;;;;4894258;29;20508;-76
2023/04/11 05:32:04;;;;;;;95.40;68.75;;;8.60;99.90;;;;;;4891523;29;20048;-77
2023/04/11 05:34:33;;;;;;;97.25;68.60;;;8.60;99.90;;;;;;4911835;29;20064;-74
2023/04/11 05:37:01;;;;;;;109.75;75.70;;;8.60;99.90;;;;;;4883380;29;20516;-75
2023/04/11 05:39:28;;;;;;;113.05;79.05;;;8.80;99.90;;;;;;4891468;29;20100;-73
2023/04/11 05:41:59;;;;;;;106.35;78.60;;;9.00;99.90;;;;;;4881319;29;20041;-75
2023/04/11 05:44:26;;;;;;;110.63;80.80;;;9.10;99.90;;;;;;4908927;29;20047;-78
2023/04/11 05:46:54;;;;;;;116.20;81.78;;;9.20;99.90;;;;;;4883844;29;20048;-75
2023/04/11 05:49:22;;;;;;;121.45;85.70;;;9.20;99.90;;;;;;4892590;29;20079;-74
2023/04/11 05:51:49;;;;;;;124.50;87.28;;;9.20;99.90;;;;;;4896216;29;20088;-77
2023/04/11 05:54:32;;;;;;;128.98;92.47;;;9.30;99.90;;;;;;4896242;29;20060;-77
2023/04/11 05:57:02;;;;;;;127.70;87.78;;;9.40;99.90;;;;;;4896488;29;20040;-74
2023/04/11 05:59:30;;;;;;;127.95;88.90;;;9.50;99.90;;;;;;4897133;29;20064;-77
2023/04/11 06:01:58;;;;;;;122.57;85.07;;;9.60;99.90;;;;;;4896562;29;20056;-78
2023/04/11 06:04:25;;;;;;;116.75;83.93;;;9.60;99.90;;;;;;4897090;29;20040;-79
2023/04/11 06:06:54;;;;;;;112.72;79.97;;;9.60;99.90;;;;;;4896106;29;21118;-76
2023/04/11 06:09:21;;;;;;;100.95;72.45;;;9.70;99.90;;;;;;4897336;29;20060;-76
2023/04/11 06:11:49;;;;;;;99.38;71.03;;;9.70;99.90;;;;;;4896820;29;20416;-77
2023/04/11 06:14:18;;;;;;;105.53;73.15;;;9.60;99.90;;;;;;4895835;29;20509;-77
2023/04/11 06:16:45;;;;;;;109.03;70.05;;;9.50;99.90;;;;;;4884022;29;20048;-74
2023/04/11 06:19:12;;;;;;;98.80;68.20;;;9.50;99.90;;;;;;4903980;29;20048;-77
2023/04/11 06:21:40;;;;;;;92.93;63.97;;;9.60;99.90;;;;;;4898753;29;20132;-76
2023/04/11 06:24:09;;;;;;;95.25;66.93;;;9.70;99.90;;;;;;4896818;29;20045;-78
2023/04/11 06:26:37;;;;;;;88.07;63.58;;;9.70;99.90;;;;;;4878930;29;20049;-76
2023/04/11 06:29:06;;;;;;;92.20;63.72;;;9.70;99.90;;;;;;4896890;29;20258;-77
2023/04/11 06:31:35;;;;;;;92.85;62.95;;;9.50;99.90;;;;;;4896168;29;20104;-77
2023/04/11 06:34:02;;;;;;;91.13;64.70;;;9.50;99.90;;;;;;4896486;29;20070;-76
2023/04/11 06:36:30;;;;;;;93.32;64.15;;;9.70;99.90;;;;;;4895250;29;20070;-77
2023/04/11 06:38:58;;;;;;;93.20;65.40;;;9.80;99.90;;;;;;4879223;29;20046;-74
2023/04/11 06:41:25;;;;;;;92.60;64.75;;;9.80;99.90;;;;;;4896177;29;20517;-78
2023/04/11 06:43:53;;;;;;;87.93;62.22;;;10.00;99.90;;;;;;4895806;29;20139;-79
2023/04/11 06:46:20;;;;;;;92.78;64.28;;;10.10;99.90;;;;;;4896262;29;20478;-76
2023/04/11 06:48:49;;;;;;;89.60;62.67;;;10.30;99.90;;;;;;4896151;29;20055;-77
2023/04/11 06:51:16;;;;;;;88.15;61.83;;;10.40;99.90;;;;;;4896027;29;20052;-78
2023/04/11 06:53:44;;;;;;;89.25;63.33;;;10.80;99.90;;;;;;4897033;29;20045;-78
2023/04/11 06:56:11;;;;;;;88.20;63.50;;;11.30;99.90;;;;;;4895958;29;20529;-76
2023/04/11 06:58:39;;;;;;;89.00;62.88;;;11.70;99.90;;;;;;4896669;29;20547;-77
2023/04/11 07:01:06;;;;;;;95.50;64.13;;;12.00;99.90;;;;;;4895749;29;20057;-78
2023/04/11 07:03:34;;;;;;;90.30;62.65;;;12.30;99.90;;;;;;4895125;29;20144;-77
2023/04/11 07:06:03;;;;;;;86.47;62.15;;;12.20;99.90;;;;;;4899220;29;20070;-78
2023/04/11 07:08:31;;;;;;;85.68;62.95;;;12.50;99.90;;;;;;4899892;29;20444;-74
2023/04/11 07:10:58;;;;;;;86.57;60.67;;;12.50;99.90;;;;;;4896647;29;20049;-77
2023/04/11 07:13:25;;;;;;;82.80;59.58;;;12.60;99.90;;;;;;4896307;29;20500;-76
2023/04/11 07:15:53;;;;;;;80.45;56.53;;;12.70;99.90;;;;;;4878651;29;20513;-76
2023/04/11 07:18:22;;;;;;;81.85;56.70;;;12.70;99.90;;;;;;4896362;29;20544;-76
2023/04/11 07:20:51;;;;;;;76.82;53.42;;;12.70;99.90;;;;;;4896701;29;20424;-75
2023/04/11 07:23:20;;;;;;;70.85;48.25;;;12.30;99.90;;;;;;4895474;29;20057;-77
2023/04/11 07:25:48;;;;;;;70.15;49.10;;;12.30;99.90;;;;;;4903711;29;20075;-76
2023/04/11 07:28:15;;;;;;;68.10;50.15;;;12.30;99.90;;;;;;4897500;29;20044;-77
2023/04/11 07:30:43;;;;;;;74.70;51.05;;;12.40;99.90;;;;;;4879805;29;20197;-76
2023/04/11 07:33:12;;;;;;;61.33;43.92;;;12.70;99.90;;;;;;4895061;29;20128;-76
2023/04/11 07:35:40;;;;;;;55.15;40.20;;;13.20;99.90;;;;;;4897930;29;20072;-77
2023/04/11 07:38:08;;;;;;;49.80;35.20;;;13.60;99.90;;;;;;4898301;29;20054;-74
2023/04/11 07:40:37;;;;;;;58.22;37.28;;;14.00;99.50;;;;;;4897944;29;20527;-73
2023/04/11 07:43:04;;;;;;;51.28;37.20;;;14.40;93.70;;;;;;4906437;29;20051;-77
2023/04/11 07:45:32;;;;;;;46.45;34.20;;;14.70;93.60;;;;;;4907799;29;20071;-78
2023/04/11 07:48:00;;;;;;;47.35;33.67;;;15.10;90.40;;;;;;4900088;29;20056;-76
2023/04/11 07:50:27;;;;;;;46.45;33.22;;;15.00;86.10;;;;;;4897728;29;20048;-75
2023/04/11 07:52:55;;;;;;;48.00;32.35;;;15.10;81.60;;;;;;4899750;29;20049;-74
2023/04/11 07:55:22;;;;;;;49.25;35.67;;;15.30;79.90;;;;;;4900428;29;20171;-78
2023/04/11 07:57:51;;;;;;;47.97;31.20;;;15.20;78.10;;;;;;4899299;29;20056;-77
2023/04/11 08:00:20;;;;;;;42.67;31.23;;;15.10;76.10;;;;;;4906336;29;20139;-79
2023/04/11 08:02:48;;;;;;;39.92;29.70;;;15.30;76.60;;;;;;4910131;29;20063;-78
2023/04/11 08:05:15;;;;;;;36.85;27.38;;;15.20;74.70;;;;;;4895303;29;20045;-76
2023/04/11 08:07:43;;;;;;;35.25;26.00;;;15.30;73.80;;;;;;4911566;29;20071;-75
2023/04/11 08:10:10;;;;;;;35.97;24.88;;;15.40;73.00;;;;;;4913598;29;20064;-77
2023/04/11 08:12:38;;;;;;;34.60;25.52;;;15.50;72.30;;;;;;4912475;29;20041;-77
2023/04/11 08:15:08;;;;;;;33.25;24.58;;;15.50;71.10;;;;;;4909368;29;20044;-74
2023/04/11 08:17:37;;;;;;;36.90;25.48;;;15.80;70.50;;;;;;4903642;29;20068;-76
2023/04/11 08:20:06;;;;;;;32.70;23.35;;;16.10;69.30;;;;;;4907984;23;20048;-74
2023/04/11 08:22:34;;;;;;;29.15;22.33;;;16.40;67.00;;;;;;4876481;29;20048;-75
2023/04/11 08:25:02;;;;;;;30.42;22.98;;;16.60;64.50;;;;;;4893468;29;20056;-75
2023/04/11 08:27:29;;;;;;;31.23;23.15;;;16.40;62.60;;;;;;4875645;29;20037;-75
2023/04/11 08:29:58;;;;;;;31.80;23.35;;;16.30;63.30;;;;;;4899360;29;20072;-75
2023/04/11 08:32:27;;;;;;;33.78;21.80;;;16.10;62.80;;;;;;4884984;29;20077;-76
2023/04/11 08:34:55;;;;;;;31.23;22.60;;;16.10;62.90;;;;;;4903380;29;20065;-76
2023/04/11 08:37:22;;;;;;;29.20;23.63;;;16.30;62.10;;;;;;4888441;29;20045;-74
2023/04/11 08:39:50;;;;;;;31.77;24.05;;;16.20;62.40;;;;;;4891607;29;20097;-77
2023/04/11 08:42:24;;;;;;;27.38;20.55;;;16.20;61.60;;;;;;4905989;29;20075;-75
2023/04/11 08:44:56;;;;;;;24.08;18.27;;;16.30;60.50;;;;;;4897265;29;20512;-74
2023/04/11 08:47:23;;;;;;;27.40;18.67;;;16.30;60.10;;;;;;4896506;29;20520;-75
2023/04/11 08:49:53;;;;;;;21.23;15.98;;;16.50;59.30;;;;;;4897529;29;20051;-75
2023/04/11 08:52:22;;;;;;;22.20;15.90;;;16.50;58.20;;;;;;4898121;29;20041;-75
2023/04/11 08:54:53;;;;;;;21.30;16.52;;;16.40;58.50;;;;;;4897393;29;20048;-75
2023/04/11 08:57:26;;;;;;;22.90;18.02;;;16.70;57.70;;;;;;4896167;29;20049;-75
2023/04/11 08:59:56;;;;;;;21.35;16.52;;;16.70;56.70;;;;;;4899610;29;20044;-75
2023/04/11 09:02:23;;;;;;;21.33;17.85;;;16.50;56.90;;;;;;4902943;29;20064;-75
2023/04/11 09:04:52;;;;;;;23.40;18.67;;;16.30;56.70;;;;;;4900647;29;20059;-75
2023/04/11 09:07:20;;;;;;;25.83;19.98;;;16.50;57.30;;;;;;4880762;29;20040;-74
2023/04/11 09:09:48;;;;;;;23.58;16.20;;;16.70;57.20;;;;;;4882674;29;20044;-74
2023/04/11 09:12:15;;;;;;;24.10;17.65;;;16.70;56.40;;;;;;4899353;29;20056;-76
2023/04/11 09:14:43;;;;;;;18.88;15.35;;;16.40;55.80;;;;;;4881095;29;20506;-74
2023/04/11 09:17:12;;;;;;;20.15;15.75;;;16.30;55.60;;;;;;4878718;29;20040;-75
2023/04/11 09:19:41;;;;;;;22.40;17.45;;;16.10;55.60;;;;;;4879470;29;20120;-75
2023/04/11 09:22:10;;;;;;;21.95;17.27;;;16.10;55.40;;;;;;4879877;29;20075;-75
2023/04/11 09:24:39;;;;;;;22.85;16.52;;;16.20;55.80;;;;;;4879026;29;20037;-75
2023/04/11 09:27:09;;;;;;;23.63;16.20;;;16.10;54.90;;;;;;4896159;29;20044;-74
2023/04/11 09:29:40;;;;;;;18.83;14.57;;;16.00;55.40;;;;;;4896020;29;20517;-75
2023/04/11 09:32:08;;;;;;;23.65;17.58;;;15.90;55.70;;;;;;4895229;29;20116;-74
2023/04/11 09:34:38;;;;;;;22.58;16.60;;;15.90;55.10;;;;;;4895743;29;20048;-73
2023/04/11 09:37:06;;;;;;;22.63;16.67;;;16.20;55.40;;;;;;4895057;29;20568;-75
2023/04/11 09:39:35;;;;;;;19.30;15.23;;;16.30;55.20;;;;;;4895987;29;20128;-74
2023/04/11 09:42:20;;;;;;;17.63;14.98;;;16.20;54.30;;;;;;4878977;29;20147;-74
2023/04/11 09:44:48;;;;;;;19.80;15.32;;;15.90;54.40;;;;;;4879551;29;20404;-75
2023/04/11 09:47:15;;;;;;;20.52;15.18;;;15.90;54.40;;;;;;4895646;29;20668;-75
2023/04/11 09:49:43;;;;;;;20.75;15.02;;;16.00;53.90;;;;;;4895730;29;20040;-74
2023/04/11 09:52:11;;;;;;;25.90;16.70;;;16.10;54.50;;;;;;4878837;29;20061;-75
2023/04/11 09:54:40;;;;;;;24.77;16.50;;;16.00;54.60;;;;;;4895948;29;20100;-73
2023/04/11 09:57:09;;;;;;;18.50;12.93;;;16.10;54.20;;;;;;4896119;29;20092;-74
2023/04/11 09:59:39;;;;;;;16.80;14.02;;;16.20;53.70;;;;;;4896044;29;20044;-75
2023/04/11 10:02:06;;;;;;;17.83;13.93;;;16.30;53.20;;;;;;4879254;29;20144;-75
2023/04/11 10:04:34;;;;;;;17.30;13.32;;;16.60;53.10;;;;;;4896532;29;20084;-75
2023/04/11 10:07:09;;;;;;;16.08;13.88;;;16.70;51.90;;;;;;4894926;29;20045;-74
2023/04/11 10:09:40;;;;;;;17.20;13.80;;;16.70;50.80;;;;;;4895115;29;20048;-75
2023/04/11 10:12:08;;;;;;;16.60;13.68;;;16.70;50.30;;;;;;4895188;29;20089;-75
2023/04/11 10:14:45;;;;;;;14.77;12.20;;;16.70;50.90;;;;;;4895789;29;20573;-76
2023/04/11 10:17:15;;;;;;;14.35;11.40;;;16.80;50.30;;;;;;4896494;29;20048;-75
2023/04/11 10:19:43;;;;;;;18.00;11.65;;;16.80;50.20;;;;;;4905077;29;20076;-72
2023/04/11 10:22:11;;;;;;;18.58;13.23;;;16.80;49.70;;;;;;4884046;29;20041;-72
2023/04/11 10:24:40;;;;;;;15.77;11.38;;;16.90;49.30;;;;;;4895016;29;20045;-72
2023/04/11 10:27:07;;;;;;;16.15;12.10;;;17.00;49.60;;;;;;4894881;29;20044;-73
2023/04/11 10:29:48;;;;;;;18.95;13.45;;;16.90;49.40;;;;;;4906539;29;20053;-72
2023/04/11 10:32:21;;;;;;;19.50;13.00;;;16.90;49.10;;;;;;4890663;29;20052;-73
2023/04/11 10:35:20;;;;;;;17.02;12.35;;;16.90;49.10;;;;;;4898386;29;20040;-74
2023/04/11 10:37:48;;;;;;;19.63;15.48;;;16.70;48.40;;;;;;4901288;29;20045;-73
2023/04/11 10:40:19;;;;;;;16.02;12.60;;;16.80;48.90;;;;;;4901023;29;20096;-74
2023/04/11 10:42:48;;;;;;;15.48;13.10;;;16.90;49.30;;;;;;4896136;29;20044;-73
2023/04/11 10:45:22;;;;;;;15.15;11.55;;;17.00;49.30;;;;;;4896357;29;20062;-72
2023/04/11 10:48:10;;;;;;;15.60;12.60;;;16.90;48.40;;;;;;4895672;29;20045;-73
2023/04/11 10:50:43;;;;;;;15.35;12.10;;;16.80;48.70;;;;;;4900076;29;20072;-73
2023/04/11 10:53:32;;;;;;;20.90;15.10;;;16.90;48.20;;;;;;4899740;29;20056;-72
2023/04/11 10:56:01;;;;;;;26.48;17.70;;;17.10;48.60;;;;;;4878045;29;20052;-75
2023/04/11 10:58:35;;;;;;;24.10;17.52;;;17.30;49.30;;;;;;4893888;29;20060;-72
2023/04/11 11:01:19;;;;;;;21.88;16.35;;;17.30;48.40;;;;;;4893857;29;20048;-72
2023/04/11 11:03:56;;;;;;;21.73;15.25;;;17.50;48.30;;;;;;4894707;29;20055;-72
2023/04/11 11:06:25;;;;;;;17.90;13.77;;;17.60;47.90;;;;;;4893068;29;20044;-74
2023/04/11 11:08:53;;;;;;;21.00;15.18;;;17.60;46.70;;;;;;4877115;29;20445;-73
2023/04/11 11:11:23;;;;;;;15.60;11.90;;;17.80;46.60;;;;;;4896558;29;20160;-73
2023/04/11 11:13:51;;;;;;;14.82;11.02;;;17.80;46.20;;;;;;4899021;29;20130;-73
2023/04/11 11:16:20;;;;;;;15.63;12.07;;;18.00;45.90;;;;;;4894489;29;20123;-73
2023/04/11 11:18:49;;;;;;;17.77;12.32;;;18.10;45.60;;;;;;4894783;29;20502;-73
2023/04/11 11:21:19;;;;;;;14.50;11.13;;;18.20;45.60;;;;;;4894666;29;20527;-73
2023/04/11 11:23:57;;;;;;;13.63;8.48;;;18.10;44.60;;;;;;4894960;29;20076;-72
2023/04/11 11:26:36;;;;;;;14.90;8.23;;;17.80;43.90;;;;;;4892554;29;20814;-72
2023/04/11 11:29:04;;;;;;;12.10;8.82;;;17.70;43.50;;;;;;4893266;29;20048;-72
2023/04/11 11:31:40;;;;;;;13.48;10.00;;;17.70;43.70;;;;;;4892963;29;20093;-73
2023/04/11 11:34:08;;;;;;;13.73;9.77;;;17.80;43.60;;;;;;4892830;29;20071;-73
2023/04/11 11:36:39;;;;;;;12.27;9.27;;;17.70;43.20;;;;;;4893296;29;20048;-72
2023/04/11 11:39:07;;;;;;;11.15;8.75;;;17.80;43.10;;;;;;4890289;29;20112;-72
2023/04/11 11:41:36;;;;;;;11.70;9.38;;;17.80;43.20;;;;;;4892780;29;20444;-73
2023/04/11 11:44:04;;;;;;;11.07;7.82;;;18.00;44.20;;;;;;4893053;29;20043;-73
2023/04/11 11:46:32;;;;;;;13.40;9.48;;;18.10;42.30;;;;;;4895637;29;20056;-73
2023/04/11 11:49:02;;;;;;;11.52;8.95;;;18.20;41.70;;;;;;4902055;29;20112;-74
2023/04/11 11:51:40;;;;;;;13.95;9.93;;;18.00;42.30;;;;;;4894306;29;20048;-74
2023/04/11 11:54:10;;;;;;;13.75;9.18;;;18.10;42.40;;;;;;4893864;29;20108;-75
2023/04/11 11:56:40;;;;;;;13.60;9.68;;;18.10;42.00;;;;;;4876045;29;20049;-75
2023/04/11 11:59:09;;;;;;;14.75;9.77;;;18.10;41.70;;;;;;4893584;29;20151;-73
2023/04/11 12:01:37;;;;;;;15.88;11.07;;;18.00;41.90;;;;;;4896225;29;20433;-73
2023/04/11 12:04:09;;;;;;;14.02;10.75;;;18.10;42.90;;;;;;4895276;29;20056;-74
2023/04/11 12:06:37;;;;;;;14.13;9.95;;;18.30;42.80;;;;;;4901668;29;20131;-72
2023/04/11 12:09:07;;;;;;;17.00;11.13;;;18.40;42.10;;;;;;4892782;29;20040;-73
2023/04/11 12:11:41;;;;;;;15.07;9.70;;;18.50;41.50;;;;;;4894054;29;20075;-73
2023/04/11 12:14:09;;;;;;;15.43;11.30;;;18.60;41.40;;;;;;4897279;29;20045;-74
2023/04/11 12:16:38;;;;;;;15.02;10.95;;;18.70;41.70;;;;;;4896994;29;20073;-73
2023/04/11 12:19:08;;;;;;;16.60;12.15;;;18.70;42.20;;;;;;4897090;29;20048;-74
2023/04/11 12:21:36;;;;;;;15.32;10.52;;;18.80;42.90;;;;;;4896993;29;20131;-74
2023/04/11 12:24:04;;;;;;;13.35;10.32;;;18.90;41.40;;;;;;4895339;29;20055;-73
2023/04/11 12:26:32;;;;;;;12.50;10.18;;;18.90;40.80;;;;;;4897014;29;20092;-75
2023/04/11 12:29:02;;;;;;;12.70;9.32;;;18.90;40.60;;;;;;4898023;29;20545;-73
2023/04/11 12:31:29;;;;;;;13.63;9.85;;;19.00;40.40;;;;;;4901796;29;20068;-74
2023/04/11 12:33:57;;;;;;;12.98;9.30;;;19.10;39.80;;;;;;4911076;29;20560;-72
2023/04/11 12:36:24;;;;;;;14.85;9.48;;;19.20;39.50;;;;;;4898595;29;20099;-72
2023/04/11 12:38:52;;;;;;;15.90;12.38;;;19.40;39.90;;;;;;4897704;29;20041;-74
2023/04/11 12:41:19;;;;;;;21.20;14.98;;;19.70;39.70;;;;;;4886293;29;20119;-74